Time;durP1;ratioP1;P1;durP2;ratioP2;P2;SDS_P1;SDS_P2;PMS_P1;PMS_P2;Temp;Humidity;BMP_temperature;BMP_pressure;BME280_temperature;BME280_humidity;BME280_pressure;Samples;Min_cycle;Max_cycle;Signal;HPM_P1;HPM_P2
2022/04/05 00:01:53;;;;;;;5.72;1.30;;;;;;;7.94;100.00;100535.16;5112573;28;20134;-25
2022/04/05 00:04:21;;;;;;;5.22;0.90;;;;;;;7.92;100.00;100531.00;5113735;28;20040;-28
2022/04/05 00:06:49;;;;;;;4.38;0.82;;;;;;;7.92;100.00;100531.84;5112159;28;20485;-28
2022/04/05 00:09:17;;;;;;;5.88;0.90;;;;;;;7.92;100.00;100539.34;5113328;27;20130;-26
2022/04/05 00:11:46;;;;;;;4.28;0.73;;;;;;;7.91;100.00;100524.63;5113408;28;20075;-25
2022/04/05 00:14:14;;;;;;;5.38;1.00;;;;;;;7.90;100.00;100545.19;5112429;28;20048;-26
2022/04/05 00:16:42;;;;;;;4.85;0.73;;;;;;;7.90;100.00;100536.03;5113753;28;20062;-30
2022/04/05 00:19:09;;;;;;;6.78;0.80;;;;;;;7.90;100.00;100539.63;5113397;28;20048;-24
2022/04/05 00:21:37;;;;;;;4.07;0.75;;;;;;;7.89;100.00;100548.25;5112402;28;20040;-30
2022/04/05 00:24:06;;;;;;;5.70;1.00;;;;;;;7.89;100.00;100543.53;5113287;28;20118;-27
2022/04/05 00:26:35;;;;;;;4.95;1.05;;;;;;;7.88;100.00;100541.88;5113141;28;20058;-28
2022/04/05 00:29:04;;;;;;;3.80;0.65;;;;;;;7.88;100.00;100541.88;5112537;27;20504;-34
2022/04/05 00:31:32;;;;;;;7.75;0.90;;;;;;;7.87;100.00;100548.53;5113250;28;20047;-27
2022/04/05 00:34:00;;;;;;;8.02;1.23;;;;;;;7.89;100.00;100548.25;5113004;28;20126;-26
2022/04/05 00:36:27;;;;;;;7.03;1.30;;;;;;;7.89;100.00;100543.53;5112410;28;20054;-28
2022/04/05 00:38:55;;;;;;;7.63;0.90;;;;;;;7.90;100.00;100547.97;5111681;28;20044;-30
2022/04/05 00:41:23;;;;;;;3.65;0.88;;;;;;;7.90;100.00;100549.91;5112864;28;20500;-30
2022/04/05 00:43:51;;;;;;;6.18;0.93;;;;;;;7.90;100.00;100544.34;5111932;28;20040;-32
2022/04/05 00:46:20;;;;;;;3.78;0.80;;;;;;;7.91;100.00;100534.91;5112967;28;20054;-32
2022/04/05 00:48:49;;;;;;;4.40;1.00;;;;;;;7.91;100.00;100546.03;5112077;28;20096;-30
2022/04/05 00:51:19;;;;;;;4.38;0.82;;;;;;;7.89;100.00;100526.03;5112557;28;20489;-29
2022/04/05 00:53:49;;;;;;;6.88;0.90;;;;;;;7.88;100.00;100541.88;5112567;28;20051;-32
2022/04/05 00:56:18;;;;;;;3.92;0.90;;;;;;;7.89;100.00;100539.91;5111869;28;20348;-33
2022/04/05 00:58:49;;;;;;;2.90;0.95;;;;;;;7.89;100.00;100546.31;5112736;27;20568;-30
2022/04/05 01:01:18;;;;;;;5.93;0.90;;;;;;;7.88;100.00;100536.31;5112530;28;20134;-30
2022/04/05 01:03:51;;;;;;;4.07;0.90;;;;;;;7.87;100.00;100545.75;5111682;28;20048;-34
2022/04/05 01:06:23;;;;;;;5.28;0.90;;;;;;;7.88;100.00;100544.66;5112815;28;20043;-26
2022/04/05 01:08:51;;;;;;;;;;;;;;;7.83;100.00;100550.22;5112762;28;20044;-30
2022/04/05 01:11:19;;;;;;;3.13;0.65;;;;;;;7.80;100.00;100548.03;5111576;28;19929;-30
2022/04/05 01:13:48;;;;;;;4.57;0.90;;;;;;;7.83;100.00;100549.41;5112370;28;20047;-28
2022/04/05 01:16:18;;;;;;;7.15;1.00;;;;;;;7.84;100.00;100553.84;5110787;28;20385;-26
2022/04/05 01:18:48;;;;;;;6.50;1.00;;;;;;;7.84;100.00;100549.13;5110537;28;20047;-26
2022/04/05 01:21:17;;;;;;;6.88;0.80;;;;;;;7.84;100.00;100546.34;5112152;28;20046;-31
2022/04/05 01:24:04;;;;;;;5.97;0.90;;;;;;;7.86;100.00;100544.09;5112198;28;20469;-31
2022/04/05 01:26:40;;;;;;;4.72;0.93;;;;;;;7.85;100.00;100550.78;5111896;28;20039;-30
2022/04/05 01:29:07;;;;;;;4.60;0.70;;;;;;;7.84;100.00;100542.72;5111903;28;20047;-30
2022/04/05 01:31:40;;;;;;;6.28;0.75;;;;;;;7.86;100.00;100551.59;5111343;28;20408;-28
2022/04/05 01:34:08;;;;;;;4.68;0.80;;;;;;;7.85;100.00;100539.66;5111914;28;20212;-29
2022/04/05 01:36:41;;;;;;;5.90;0.95;;;;;;;7.85;100.00;100539.66;5111845;28;20051;-27
2022/04/05 01:39:11;;;;;;;6.60;1.05;;;;;;;7.85;100.00;100542.44;5109380;28;20412;-25
2022/04/05 01:41:38;;;;;;;3.42;1.08;;;;;;;7.85;100.00;100542.44;5100879;28;20524;-29
2022/04/05 01:44:07;;;;;;;4.80;1.05;;;;;;;7.86;100.00;100548.81;5111833;28;20043;-27
2022/04/05 01:46:35;;;;;;;5.55;1.00;;;;;;;7.84;100.00;100542.72;5110571;28;20075;-30
2022/04/05 01:49:06;;;;;;;6.60;1.05;;;;;;;7.84;100.00;100535.22;5111817;28;20047;-31
2022/04/05 01:51:36;;;;;;;4.45;0.88;;;;;;;7.82;100.00;100531.91;5108518;28;20488;-31
2022/04/05 01:54:06;;;;;;;4.90;0.90;;;;;;;7.81;100.00;100535.81;5111123;28;20511;-29
2022/04/05 01:56:42;;;;;;;4.30;0.80;;;;;;;7.83;100.00;100535.50;5111168;28;20070;-30
2022/04/05 01:59:10;;;;;;;5.43;0.80;;;;;;;7.81;100.00;100527.47;5110949;28;20043;-31
2022/04/05 02:01:38;;;;;;;5.60;0.82;;;;;;;7.81;100.00;100534.97;5110846;28;20067;-29
2022/04/05 02:04:06;;;;;;;5.13;1.00;;;;;;;7.81;100.00;100530.25;5108208;28;20043;-25
2022/04/05 02:06:36;;;;;;;8.23;0.90;;;;;;;7.82;100.00;100519.97;5109063;28;20048;-32
2022/04/05 02:09:04;;;;;;;4.07;0.90;;;;;;;7.81;100.00;100521.91;5111067;28;20051;-28
2022/04/05 02:11:35;;;;;;;3.63;0.65;;;;;;;7.83;100.00;100529.97;5109959;28;20075;-29
2022/04/05 02:14:14;;;;;;;3.22;0.80;;;;;;;7.82;100.00;100533.84;5109190;28;20051;-26
2022/04/05 02:16:43;;;;;;;6.20;1.13;;;;;;;7.82;100.00;100540.25;5111188;28;20040;-27
2022/04/05 02:19:12;;;;;;;4.00;0.80;;;;;;;7.82;100.00;100537.47;5108431;28;20484;-30
2022/04/05 02:21:42;;;;;;;3.47;0.73;;;;;;;7.83;100.00;100532.72;5109226;28;20054;-32
2022/04/05 02:24:10;;;;;;;5.45;0.98;;;;;;;7.84;100.00;100534.41;5111135;28;20397;-27
2022/04/05 02:26:40;;;;;;;6.45;0.80;;;;;;;7.85;100.00;100536.06;5109892;28;20062;-25
2022/04/05 02:29:08;;;;;;;2.88;0.70;;;;;;;7.84;100.00;100535.22;5108854;28;20073;-30
2022/04/05 02:31:41;;;;;;;10.50;1.00;;;;;;;7.84;100.00;100539.94;5109625;28;20054;-28
2022/04/05 02:34:12;;;;;;;3.47;0.70;;;;;;;7.84;100.00;100542.72;5110799;28;20051;-25
2022/04/05 02:36:45;;;;;;;4.25;0.93;;;;;;;7.83;100.00;100543.84;5109771;28;20051;-30
2022/04/05 02:39:16;;;;;;;4.00;0.80;;;;;;;7.84;100.00;100548.28;5109449;28;20048;-29
2022/04/05 02:41:50;;;;;;;2.92;0.65;;;;;;;7.84;100.00;100545.50;5108750;28;20051;-28
2022/04/05 02:44:20;;;;;;;5.68;0.85;;;;;;;7.85;100.00;100541.59;5109357;28;20408;-29
2022/04/05 02:46:52;;;;;;;6.10;0.88;;;;;;;7.85;100.00;100536.88;5110968;28;20051;-29
2022/04/05 02:49:21;;;;;;;8.95;1.10;;;;;;;7.86;100.00;100543.28;5110143;28;20039;-27
2022/04/05 02:51:49;;;;;;;3.75;1.02;;;;;;;7.85;100.00;100534.09;5110615;28;20525;-26
2022/04/05 02:54:24;;;;;;;5.60;0.80;;;;;;;7.85;100.00;100527.72;5109312;28;20417;-26
2022/04/05 02:56:57;;;;;;;4.13;0.77;;;;;;;7.84;100.00;100535.22;5108437;28;20048;-27
2022/04/05 02:59:25;;;;;;;4.18;0.75;;;;;;;7.85;100.00;100530.50;5110889;28;20065;-29
2022/04/05 03:01:53;;;;;;;5.40;1.23;;;;;;;7.85;100.00;100530.50;5110700;28;20044;-32
2022/04/05 03:04:22;;;;;;;3.28;0.80;;;;;;;7.85;100.00;100530.50;5108661;28;20422;-31
2022/04/05 03:06:51;;;;;;;4.38;0.90;;;;;;;7.85;100.00;100534.09;5109170;28;20036;-24
2022/04/05 03:09:21;;;;;;;4.00;0.82;;;;;;;7.84;100.00;100540.78;5108868;28;20362;-26
2022/04/05 03:11:51;;;;;;;3.30;0.82;;;;;;;7.82;100.00;100543.00;5109032;28;20500;-30
2022/04/05 03:14:21;;;;;;;4.32;0.90;;;;;;;7.82;100.00;100542.19;5109130;28;20484;-30
2022/04/05 03:16:50;;;;;;;6.30;0.90;;;;;;;7.80;100.00;100539.69;5108527;28;20063;-25
2022/04/05 03:19:20;;;;;;;3.90;0.75;;;;;;;7.79;100.00;100532.50;5109089;28;20101;-29
2022/04/05 03:21:50;;;;;;;3.22;0.70;;;;;;;7.78;100.00;100535.56;5108176;28;20052;-27
2022/04/05 03:24:19;;;;;;;4.13;0.90;;;;;;;7.76;100.00;100533.09;5106414;28;20040;-30
2022/04/05 03:26:47;;;;;;;2.72;0.80;;;;;;;7.74;100.00;100529.75;5107539;28;20097;-29
2022/04/05 03:29:15;;;;;;;2.30;0.70;;;;;;;7.73;100.00;100530.88;5107633;28;20089;-27
2022/04/05 03:31:44;;;;;;;2.08;0.68;;;;;;;7.73;100.00;100533.66;5109007;28;20047;-29
2022/04/05 03:34:12;;;;;;;3.15;0.60;;;;;;;7.72;100.00;100532.00;5107900;28;20048;-27
2022/04/05 03:36:41;;;;;;;3.25;0.70;;;;;;;7.72;100.00;100529.22;5107928;28;20390;-32
2022/04/05 03:39:10;;;;;;;1.42;0.50;;;;;;;7.71;100.00;100524.78;5106256;28;20475;-29
2022/04/05 03:41:38;;;;;;;3.95;0.80;;;;;;;7.73;100.00;100533.66;5110619;28;20054;-32
2022/04/05 03:44:07;;;;;;;4.35;0.60;;;;;;;7.73;100.00;100527.28;5111980;28;20040;-29
2022/04/05 03:46:39;;;;;;;2.20;0.47;;;;;;;7.73;100.00;100528.09;5111276;28;20092;-30
2022/04/05 03:49:10;;;;;;;3.47;1.60;;;;;;;7.74;100.00;100529.75;5111845;28;20463;-27
2022/04/05 03:51:42;;;;;;;3.53;0.90;;;;;;;7.72;100.00;100515.31;5111861;28;20175;-26
2022/04/05 03:54:10;;;;;;;2.45;0.57;;;;;;;7.73;100.00;100519.75;5112560;28;20031;-30
2022/04/05 03:56:41;;;;;;;2.97;0.70;;;;;;;7.72;100.00;100531.16;5112593;28;20048;-28
2022/04/05 03:59:12;;;;;;;4.05;0.60;;;;;;;7.70;100.00;100537.00;5111684;28;20124;-30
2022/04/05 04:01:40;;;;;;;5.35;0.80;;;;;;;7.72;100.00;100539.50;5113445;28;20101;-27
2022/04/05 04:04:10;;;;;;;2.25;0.80;;;;;;;7.70;100.00;100538.94;5112438;28;20067;-28
2022/04/05 04:06:38;;;;;;;2.45;0.50;;;;;;;7.69;100.00;100524.22;5111478;28;20079;-29
2022/04/05 04:09:06;;;;;;;2.35;0.75;;;;;;;7.69;100.00;100521.47;5112162;28;20035;-35
2022/04/05 04:11:36;;;;;;;1.63;0.43;;;;;;;7.69;100.00;100524.22;5112071;28;20077;-29
2022/04/05 04:14:04;;;;;;;3.22;0.70;;;;;;;7.69;100.00;100524.22;5112540;28;20048;-32
2022/04/05 04:16:32;;;;;;;2.22;0.60;;;;;;;7.69;100.00;100527.00;5111975;28;20047;-28
2022/04/05 04:19:00;;;;;;;1.77;0.50;;;;;;;7.70;100.00;100514.78;5102388;28;20096;-31
2022/04/05 04:21:33;;;;;;;2.15;0.70;;;;;;;7.72;100.00;100520.06;5107944;28;20039;-28
2022/04/05 04:24:01;;;;;;;3.40;0.77;;;;;;;7.71;100.00;100513.66;5113390;28;20134;-28
2022/04/05 04:26:28;;;;;;;3.17;0.50;;;;;;;7.72;100.00;100515.31;5113511;28;20044;-30
2022/04/05 04:29:00;;;;;;;2.53;0.60;;;;;;;7.73;100.00;100513.38;5112156;27;20048;-28
2022/04/05 04:31:28;;;;;;;2.67;0.60;;;;;;;7.73;100.00;100511.44;5110608;28;20051;-30
2022/04/05 04:33:56;;;;;;;2.72;0.60;;;;;;;7.74;100.00;100518.66;5110705;28;20468;-29
2022/04/05 04:36:24;;;;;;;2.80;0.60;;;;;;;7.75;100.00;100517.53;5113043;28;20055;-29
2022/04/05 04:38:54;;;;;;;2.50;0.65;;;;;;;7.76;100.00;100513.63;5112749;28;20051;-31
2022/04/05 04:41:23;;;;;;;3.70;0.70;;;;;;;7.78;100.00;100516.13;5112821;28;20043;-25
2022/04/05 04:43:51;;;;;;;3.70;0.80;;;;;;;7.78;100.00;100510.56;5112841;28;20054;-29
2022/04/05 04:46:19;;;;;;;5.43;1.05;;;;;;;7.78;100.00;100508.63;5113094;28;20040;-26
2022/04/05 04:48:47;;;;;;;2.50;0.70;;;;;;;7.80;100.00;100500.81;5111859;28;20052;-25
2022/04/05 04:51:15;;;;;;;1.40;0.50;;;;;;;7.81;100.00;100505.25;5112687;28;20565;-28
2022/04/05 04:53:43;;;;;;;2.38;0.90;;;;;;;7.82;100.00;100506.06;5104653;28;20054;-25
2022/04/05 04:56:12;;;;;;;4.75;0.90;;;;;;;7.84;100.00;100507.44;5110706;28;20044;-32
2022/04/05 04:58:40;;;;;;;2.58;0.63;;;;;;;7.82;100.00;100506.91;5111521;28;20047;-26
2022/04/05 05:01:07;;;;;;;2.97;0.80;;;;;;;7.84;100.00;100509.41;5111446;28;20042;-32
2022/04/05 05:03:35;;;;;;;3.38;0.73;;;;;;;7.82;100.00;100511.63;5110541;28;20447;-29
2022/04/05 05:06:04;;;;;;;3.30;0.80;;;;;;;7.82;100.00;100514.41;5110989;28;20051;-26
2022/04/05 05:08:32;;;;;;;2.53;0.70;;;;;;;7.82;100.00;100504.13;5111199;28;20054;-27
2022/04/05 05:11:00;;;;;;;1.73;0.50;;;;;;;7.84;100.00;100501.06;5110050;28;20047;-26
2022/04/05 05:13:31;;;;;;;2.97;0.60;;;;;;;7.85;100.00;100502.72;5109995;28;20043;-29
2022/04/05 05:15:59;;;;;;;1.42;0.50;;;;;;;7.85;100.00;100494.38;5109575;28;20047;-25
2022/04/05 05:18:27;;;;;;;2.33;0.52;;;;;;;7.84;100.00;100492.72;5109569;28;20353;-23
2022/04/05 05:20:55;;;;;;;1.85;0.63;;;;;;;7.85;100.00;100494.38;5110275;28;20146;-27
2022/04/05 05:23:22;;;;;;;4.50;0.73;;;;;;;7.85;100.00;100488.84;5108077;28;20048;-31
2022/04/05 05:25:50;;;;;;;1.48;0.50;;;;;;;7.86;100.00;100485.78;5111188;28;20413;-26
2022/04/05 05:28:18;;;;;;;3.03;0.68;;;;;;;7.88;100.00;100485.47;5110848;28;20040;-27
2022/04/05 05:30:47;;;;;;;2.05;0.60;;;;;;;7.89;100.00;100485.19;5110430;28;20153;-28
2022/04/05 05:33:15;;;;;;;5.15;0.80;;;;;;;7.91;100.00;100482.94;5110863;27;20051;-27
2022/04/05 05:35:43;;;;;;;3.72;0.93;;;;;;;7.89;100.00;100485.19;5110506;28;20503;-29
2022/04/05 05:38:11;;;;;;;2.97;0.98;;;;;;;7.87;100.00;100489.38;5108611;28;20383;-31
2022/04/05 05:40:39;;;;;;;2.47;0.80;;;;;;;7.86;100.00;100487.72;5068003;28;20434;-33
2022/04/05 05:43:07;;;;;;;3.50;0.95;;;;;;;7.85;100.00;100486.88;5062677;28;20056;-28
2022/04/05 05:45:36;;;;;;;3.45;0.90;;;;;;;7.86;100.00;100488.53;5069116;28;20067;-27
2022/04/05 05:48:07;;;;;;;3.00;0.88;;;;;;;7.86;100.00;100485.78;5070364;28;20040;-32
2022/04/05 05:50:36;;;;;;;4.93;0.73;;;;;;;7.87;100.00;100486.59;5070153;28;20049;-33
2022/04/05 05:53:05;;;;;;;4.07;0.93;;;;;;;7.89;100.00;100495.47;5069324;28;20048;-29
2022/04/05 05:55:35;;;;;;;3.35;0.60;;;;;;;7.92;100.00;100489.34;5070168;28;20451;-28
2022/04/05 05:58:04;;;;;;;3.00;0.68;;;;;;;7.91;100.00;100488.50;5069949;28;20037;-32
2022/04/05 06:00:32;;;;;;;2.78;0.90;;;;;;;7.92;100.00;100497.66;5069396;28;20045;-30
2022/04/05 06:03:01;;;;;;;2.42;0.70;;;;;;;7.93;100.00;100504.88;5070033;28;20036;-25
2022/04/05 06:05:31;;;;;;;3.95;0.80;;;;;;;7.92;100.00;100495.72;5069270;28;20051;-26
2022/04/05 06:07:59;;;;;;;4.40;0.82;;;;;;;7.92;100.00;100498.50;5069879;28;20052;-27
2022/04/05 06:10:27;;;;;;;4.30;1.00;;;;;;;7.94;100.00;100495.44;5069539;28;20040;-27
2022/04/05 06:12:57;;;;;;;2.88;1.05;;;;;;;7.97;100.00;100494.03;5069254;28;20083;-35
2022/04/05 06:15:26;;;;;;;2.92;0.80;;;;;;;7.99;100.00;100500.13;5070087;28;20053;-27
2022/04/05 06:17:55;;;;;;;3.40;1.08;;;;;;;8.03;100.00;100501.19;5069980;28;20143;-29
2022/04/05 06:20:24;;;;;;;4.97;1.25;;;;;;;8.04;100.00;100495.34;5068872;28;20049;-25
2022/04/05 06:22:55;;;;;;;3.95;1.08;;;;;;;8.05;100.00;100491.44;5069857;28;20056;-32
2022/04/05 06:25:27;;;;;;;5.90;1.65;;;;;;;8.07;100.00;100496.72;5069217;28;20068;-27
2022/04/05 06:27:55;;;;;;;3.20;1.00;;;;;;;8.08;100.00;100498.38;5066048;28;20063;-32
2022/04/05 06:30:23;;;;;;;4.68;1.00;;;;;;;8.10;100.00;100498.91;5069415;28;20412;-32
2022/04/05 06:32:51;;;;;;;5.85;1.23;;;;;;;8.13;100.00;100501.09;5069687;28;20404;-29
2022/04/05 06:35:19;;;;;;;1.90;0.70;;;;;;;8.14;100.00;100500.00;5068879;28;20048;-33
2022/04/05 06:37:47;;;;;;;3.45;0.50;;;;;;;8.17;100.00;100493.84;5067751;28;20044;-31
2022/04/05 06:40:16;;;;;;;5.20;0.90;;;;;;;8.22;100.00;100486.28;5103743;28;20055;-26
2022/04/05 06:42:44;;;;;;;1.67;0.60;;;;;;;8.21;100.00;100494.91;5109353;28;20048;-24
2022/04/05 06:45:14;;;;;;;4.55;0.75;;;;;;;8.22;100.00;100507.69;5110173;28;20054;-30
2022/04/05 06:47:42;;;;;;;2.28;0.55;;;;;;;8.22;100.00;100502.94;5109228;28;20046;-26
2022/04/05 06:50:12;;;;;;;2.83;0.60;;;;;;;8.22;100.00;100507.69;5109771;28;20116;-34
2022/04/05 06:52:41;;;;;;;2.70;0.80;;;;;;;8.25;100.00;100501.53;5110186;28;20169;-28
2022/04/05 06:55:11;;;;;;;1.90;0.60;;;;;;;8.25;100.00;100494.03;5109331;28;20304;-29
2022/04/05 06:57:40;;;;;;;2.63;0.60;;;;;;;8.26;100.00;100495.69;5109895;28;20075;-30
2022/04/05 07:00:10;;;;;;;2.20;0.40;;;;;;;8.28;100.00;100496.22;5109725;28;20492;-31
2022/04/05 07:02:39;;;;;;;4.13;0.60;;;;;;;8.32;100.00;100507.63;5108846;28;20074;-33
2022/04/05 07:05:08;;;;;;;2.67;0.70;;;;;;;8.33;100.00;100511.22;5110130;28;20084;-25
2022/04/05 07:07:36;;;;;;;3.28;0.50;;;;;;;8.33;100.00;100508.47;5109862;28;20447;-25
2022/04/05 07:10:05;;;;;;;2.75;0.60;;;;;;;8.39;100.00;100508.13;5109121;28;20054;-35
2022/04/05 07:12:33;;;;;;;3.90;0.80;;;;;;;8.42;100.00;100513.06;5109658;28;20043;-27
2022/04/05 07:15:03;;;;;;;2.55;1.20;;;;;;;8.45;100.00;100501.38;5109712;28;20404;-28
2022/04/05 07:17:30;;;;;;;4.85;1.40;;;;;;;8.51;100.00;100505.75;5112945;28;20054;-29
2022/04/05 07:20:18;;;;;;;7.90;1.90;;;;;;;8.61;100.00;100504.81;5104865;28;20038;-27
2022/04/05 07:22:48;;;;;;;7.97;3.17;;;;;;;8.70;100.00;100500.28;5112891;28;20046;-31
2022/04/05 07:25:16;;;;;;;6.88;2.75;;;;;;;8.80;100.00;100502.09;5102764;28;20143;-27
2022/04/05 07:27:45;;;;;;;7.53;3.67;;;;;;;8.91;100.00;100507.25;5111990;28;20048;-32
2022/04/05 07:30:14;;;;;;;12.90;4.53;;;;;;;8.97;100.00;100500.50;5112772;28;20035;-25
2022/04/05 07:32:44;;;;;;;8.18;4.57;;;;;;;9.05;100.00;100498.16;5113286;28;20531;-31
2022/04/05 07:35:13;;;;;;;10.98;5.13;;;;;;;9.12;100.00;100502.25;5113714;28;20475;-31
2022/04/05 07:37:41;;;;;;;13.70;6.20;;;;;;;9.19;100.00;100502.69;5112316;28;20442;-26
2022/04/05 07:40:10;;;;;;;11.43;5.88;;;;;;;9.24;100.00;100501.81;5113635;27;20052;-27
2022/04/05 07:42:40;;;;;;;14.45;6.55;;;;;;;9.25;100.00;100498.72;5113369;28;20047;-33
2022/04/05 07:45:09;;;;;;;12.73;5.43;;;;;;;9.28;100.00;100500.09;5112507;28;20044;-26
2022/04/05 07:47:39;;;;;;;16.48;5.40;;;;;;;9.30;100.00;100501.44;5113183;28;20061;-31
2022/04/05 07:50:08;;;;;;;15.95;4.38;;;;;;;9.32;100.00;100501.97;5113066;28;20151;-27
2022/04/05 07:52:36;;;;;;;13.38;4.00;;;;;;;9.33;100.00;100495.28;5112338;28;20061;-31
2022/04/05 07:55:05;;;;;;;15.77;3.42;;;;;;;9.33;100.00;100495.28;5113140;28;20081;-26
2022/04/05 07:57:36;;;;;;;18.20;4.00;;;;;;;9.32;100.00;100499.19;5112922;28;20046;-27
2022/04/05 08:00:06;;;;;;;20.30;4.47;;;;;;;9.35;100.00;100500.56;5112347;28;20135;-27
2022/04/05 08:02:41;;;;;;;10.48;2.90;;;;;;;9.42;100.00;100509.34;5112855;28;20047;-35
2022/04/05 08:05:15;;;;;;;14.60;3.60;;;;;;;9.48;100.00;100510.13;5112237;28;20061;-27
2022/04/05 08:07:44;;;;;;;18.40;4.53;;;;;;;9.52;100.00;100508.41;5112842;28;20059;-28
2022/04/05 08:10:13;;;;;;;14.25;3.63;;;;;;;9.57;100.00;100508.31;5112584;28;20048;-26
2022/04/05 08:12:43;;;;;;;15.93;3.78;;;;;;;9.61;100.00;100507.41;5111892;28;20044;-25
2022/04/05 08:15:12;;;;;;;14.18;3.35;;;;;;;9.63;100.00;100509.88;5112723;28;20040;-27
2022/04/05 08:17:42;;;;;;;18.38;4.00;;;;;;;9.67;100.00;100510.94;5112845;28;20143;-33
2022/04/05 08:20:11;;;;;;;15.82;3.28;;;;;;;9.66;100.00;100512.91;5111876;27;20043;-27
2022/04/05 08:22:39;;;;;;;13.60;2.85;;;;;;;9.68;100.00;100519.00;5112392;28;20083;-26
2022/04/05 08:25:08;;;;;;;13.35;3.10;;;;;;;9.75;100.00;100515.00;5112649;28;20044;-27
2022/04/05 08:27:36;;;;;;;12.98;3.08;;;;;;;9.86;100.00;100508.97;5111525;27;20126;-30
2022/04/05 08:30:05;;;;;;;16.63;3.40;;;;;;;10.02;100.00;100507.59;5112076;28;20042;-28
2022/04/05 08:32:34;;;;;;;16.55;3.92;;;;;;;10.09;100.00;100511.94;5112634;28;20131;-32
2022/04/05 08:35:04;;;;;;;19.10;3.72;;;;;;;10.15;100.00;100517.16;5110479;28;20147;-28
2022/04/05 08:37:32;;;;;;;15.60;3.10;;;;;;;10.22;100.00;100523.16;5112322;28;20039;-26
2022/04/05 08:40:06;;;;;;;18.00;3.38;;;;;;;10.29;100.00;100520.81;5111275;28;20055;-25
2022/04/05 08:42:34;;;;;;;17.45;2.85;;;;;;;10.32;100.00;100514.63;5112288;28;20044;-28
2022/04/05 08:45:04;;;;;;;11.63;2.47;;;;;;;10.34;100.00;100517.13;5111563;28;20497;-35
2022/04/05 08:47:35;;;;;;;19.10;3.25;;;;;;;10.43;100.00;100525.59;5108163;28;20078;-31
2022/04/05 08:50:05;;;;;;;12.00;2.55;;;;;;;10.51;100.00;100519.31;5112213;28;20090;-34
2022/04/05 08:52:34;;;;;;;14.93;3.40;;;;;;;10.55;100.00;100525.94;5110953;28;20047;-30
2022/04/05 08:55:02;;;;;;;17.65;3.22;;;;;;;10.62;100.00;100526.34;5110867;28;20045;-33
2022/04/05 08:57:30;;;;;;;16.67;3.63;;;;;;;10.66;100.00;100531.03;5111684;28;20048;-28
2022/04/05 08:59:58;;;;;;;14.80;2.53;;;;;;;10.63;100.00;100523.25;5112158;28;20126;-24
2022/04/05 09:02:28;;;;;;;16.25;2.92;;;;;;;10.57;100.00;100518.94;5110815;28;20096;-27
2022/04/05 09:04:56;;;;;;;12.40;2.72;;;;;;;10.54;100.00;100515.94;5111726;28;20386;-29
2022/04/05 09:07:29;;;;;;;13.00;2.97;;;;;;;10.50;100.00;100523.25;5111520;28;20044;-32
2022/04/05 09:10:14;;;;;;;13.65;2.92;;;;;;;10.45;100.00;100518.59;5110730;28;20100;-30
2022/04/05 09:12:45;;;;;;;15.00;2.70;;;;;;;10.41;100.00;100522.28;5111515;28;20079;-31
2022/04/05 09:15:26;;;;;;;13.48;2.90;;;;;;;10.39;100.00;100514.25;5110809;28;20071;-27
2022/04/05 09:17:54;;;;;;;12.70;3.35;;;;;;;10.35;100.00;100521.56;5111258;28;20214;-28
2022/04/05 09:20:24;;;;;;;16.60;3.47;;;;;;;10.34;100.00;100522.72;5111248;28;20043;-30
2022/04/05 09:22:54;;;;;;;15.95;3.15;;;;;;;10.32;100.00;100522.19;5110634;28;20044;-29
2022/04/05 09:25:23;;;;;;;15.93;3.42;;;;;;;10.30;100.00;100522.47;5111374;28;20040;-34
2022/04/05 09:27:53;;;;;;;12.93;2.85;;;;;;;10.26;100.00;100520.59;5111205;27;20051;-28
2022/04/05 09:30:24;;;;;;;18.15;3.35;;;;;;;10.26;100.00;100528.97;5110159;28;20097;-29
2022/04/05 09:32:52;;;;;;;16.02;2.97;;;;;;;10.24;100.00;100529.28;5111039;28;20054;-28
2022/04/05 09:35:22;;;;;;;14.30;3.38;;;;;;;10.23;100.00;100529.56;5110939;28;20031;-28
2022/04/05 09:37:51;;;;;;;18.17;3.53;;;;;;;10.24;100.00;100528.44;5110201;28;20048;-31
2022/04/05 09:40:31;;;;;;;18.60;3.47;;;;;;;10.33;100.00;100529.41;5110515;28;20083;-28
2022/04/05 09:43:21;;;;;;;18.98;3.63;;;;;;;10.37;100.00;100524.88;5110359;28;20047;-31
2022/04/05 09:45:53;;;;;;;17.27;3.38;;;;;;;10.45;100.00;100526.94;5111106;28;20047;-32
2022/04/05 09:48:23;;;;;;;15.43;3.03;;;;;;;10.50;100.00;100529.66;5109668;28;20408;-27
2022/04/05 09:51:03;;;;;;;12.52;2.58;;;;;;;10.55;100.00;100524.00;5109676;28;20043;-26
2022/04/05 09:53:43;;;;;;;15.45;3.17;;;;;;;10.55;100.00;100532.38;5110451;28;20046;-32
2022/04/05 09:56:15;;;;;;;15.73;2.78;;;;;;;10.50;100.00;100529.66;5110977;28;20075;-30
2022/04/05 09:58:48;;;;;;;15.65;3.53;;;;;;;10.44;100.00;100528.09;5109975;28;20462;-32
2022/04/05 10:01:17;;;;;;;17.50;2.88;;;;;;;10.44;100.00;100527.25;5110626;28;20107;-26
2022/04/05 10:03:59;;;;;;;15.95;3.35;;;;;;;10.51;100.00;100531.31;5110387;28;20051;-28
2022/04/05 10:06:28;;;;;;;17.38;3.10;;;;;;;10.56;100.00;100533.19;5109989;28;20071;-24
2022/04/05 10:08:57;;;;;;;14.45;3.45;;;;;;;10.63;100.00;100523.25;5110640;28;20048;-32
2022/04/05 10:11:28;;;;;;;16.83;3.55;;;;;;;10.65;100.00;100532.16;5110142;28;20101;-26
2022/04/05 10:13:57;;;;;;;14.93;3.20;;;;;;;10.66;100.00;100533.81;5110376;28;20103;-30
2022/04/05 10:16:27;;;;;;;16.00;3.55;;;;;;;10.66;100.00;100546.94;5110183;28;20039;-26
2022/04/05 10:19:09;;;;;;;16.30;3.08;;;;;;;10.62;100.00;100538.34;5109773;28;20485;-31
2022/04/05 10:21:39;;;;;;;14.82;2.90;;;;;;;10.67;100.00;100541.06;5110191;28;20531;-25
2022/04/05 10:24:09;;;;;;;15.60;3.40;;;;;;;10.72;100.00;100536.50;5110077;28;20581;-28
2022/04/05 10:26:39;;;;;;;18.48;3.30;;;;;;;10.75;100.00;100538.69;5109442;28;20048;-35
2022/04/05 10:29:10;;;;;;;12.13;2.88;;;;;;;10.74;100.00;100534.25;5098584;28;20381;-29
2022/04/05 10:31:52;;;;;;;12.48;2.70;;;;;;;10.79;100.00;100542.53;5110031;28;20055;-34
2022/04/05 10:34:24;;;;;;;14.75;3.10;;;;;;;10.81;100.00;100540.22;5097864;28;20050;-30
2022/04/05 10:37:05;;;;;;;13.75;2.75;;;;;;;10.89;100.00;100539.53;5108764;28;20046;-29
2022/04/05 10:39:33;;;;;;;15.18;3.25;;;;;;;10.94;100.00;100540.25;5099094;28;20048;-27
2022/04/05 10:42:22;;;;;;;13.40;3.15;;;;;;;11.03;100.00;100546.75;5110258;28;20043;-27
2022/04/05 10:44:53;;;;;;;14.38;3.30;;;;;;;11.03;100.00;100546.75;5100157;28;20070;-33
2022/04/05 10:47:22;;;;;;;15.00;3.15;;;;;;;11.10;100.00;100539.94;5109285;28;20493;-30
2022/04/05 10:50:17;;;;;;;19.48;3.88;;;;;;;11.21;100.00;100545.00;5101544;28;20440;-32
2022/04/05 10:52:47;;;;;;;15.55;3.03;;;;;;;11.35;100.00;100534.66;5114713;28;20044;-27
2022/04/05 10:55:20;;;;;;;14.40;3.15;;;;;;;11.48;100.00;100541.34;5114223;28;20464;-30
2022/04/05 10:58:08;;;;;;;12.73;3.03;;;;;;;11.54;100.00;100533.69;5114784;27;20093;-29
2022/04/05 11:00:36;;;;;;;12.13;3.00;;;;;;;11.62;100.00;100533.75;5115013;28;20142;-28
2022/04/05 11:03:06;;;;;;;13.93;3.20;;;;;;;11.68;100.00;100526.09;5114254;28;20036;-30
2022/04/05 11:05:41;;;;;;;13.25;2.90;;;;;;;11.74;100.00;100530.44;5114732;28;20292;-32
2022/04/05 11:08:18;;;;;;;13.70;2.95;;;;;;;11.79;100.00;100526.75;5113863;28;20055;-28
2022/04/05 11:10:51;;;;;;;10.98;2.40;;;;;;;11.85;100.00;100529.06;5114355;28;20054;-29
2022/04/05 11:13:32;;;;;;;12.85;2.97;;;;;;;11.86;100.00;100529.91;5114294;28;20044;-32
2022/04/05 11:16:01;;;;;;;14.50;3.05;;;;;;;11.84;100.00;100526.59;5113721;28;20446;-23
2022/04/05 11:18:31;;;;;;;11.23;2.85;;;;;;;11.83;100.00;100522.97;5114145;28;20442;-30
2022/04/05 11:21:00;;;;;;;13.32;3.83;;;;;;;11.81;100.00;100519.66;5114096;28;20144;-32
2022/04/05 11:23:47;;;;;;;10.40;2.70;;;;;;;11.77;100.00;100523.44;5113253;28;20039;-34
2022/04/05 11:26:35;;;;;;;11.20;2.60;;;;;;;11.70;100.00;100526.63;5104744;28;20136;-32
2022/04/05 11:29:20;;;;;;;14.57;3.30;;;;;;;11.58;100.00;100516.00;5113338;28;20054;-33
2022/04/05 11:31:49;;;;;;;9.35;2.40;;;;;;;11.55;100.00;100521.38;5114136;28;20458;-29
2022/04/05 11:34:37;;;;;;;8.77;2.58;;;;;;;11.50;100.00;100516.72;5112649;28;20055;-32